.
WxDataArchive / Data Records for 2010-01-31
2010-01-30 January 2010 2010-02-01

Data Records for Sunday, 31 January 2010

Time	Temp	Chill	HIndex	Humid	Dewpt	 Wind 	HiWind	WindDir	Rain 	Barom 
-----	----	-----	------	-----	-----	------	------	-------	-----	----- 
00:00	10.2	10.2	10.2	84	6.3	0	0	---	0.00	30.245 
00:05	10.0	10.0	10.0	84	6.2	0	0	---	0.00	30.245 
00:10	10.0	10.0	10.0	84	6.2	0	0	---	0.00	30.245 
00:15	9.9	9.9	9.9	84	6.1	0	0	---	0.00	30.242 
00:20	9.7	9.7	9.7	84	5.9	0	0	---	0.00	30.242 
00:25	9.7	9.7	9.7	84	5.9	0	0	---	0.00	30.242 
00:30	9.7	9.7	9.7	84	5.9	0	0	---	0.00	30.238 
00:35	9.7	9.7	9.7	84	5.9	0	0	---	0.00	30.238 
00:40	9.7	9.7	9.7	85	6.1	0	0	---	0.00	30.238 
00:45	9.7	9.7	9.7	85	6.1	0	0	---	0.00	30.237 
00:50	9.7	9.7	9.7	85	6.1	0	0	---	0.00	30.237 
00:55	9.5	9.5	9.5	85	5.9	0	0	---	0.00	30.237 
01:00	9.3	9.3	9.3	85	5.7	0	0	---	0.00	30.232 
01:05	9.3	9.3	9.3	85	5.7	0	0	---	0.00	30.232 
01:10	9.2	9.2	9.2	85	5.6	0	0	---	0.00	30.232 
01:15	9.0	9.0	9.0	85	5.4	0	0	---	0.00	30.230 
01:20	8.8	8.8	8.8	85	5.2	0	0	---	0.00	30.230 
01:25	8.6	8.6	8.6	85	5.0	0	0	---	0.00	30.230 
01:30	8.6	8.6	8.6	85	5.0	0	0	---	0.00	30.232 
01:35	8.4	8.4	8.4	85	4.8	0	0	---	0.00	30.232 
01:40	8.3	8.3	8.3	85	4.7	0	0	---	0.00	30.232 
01:45	8.1	8.1	8.1	85	4.5	0	0	---	0.00	30.235 
01:50	7.9	7.9	7.9	85	4.3	0	0	---	0.00	30.235 
01:55	7.9	7.9	7.9	85	4.3	0	0	---	0.00	30.235 
02:00	7.7	7.7	7.7	85	4.2	0	0	---	0.00	30.236 
02:05	7.7	7.7	7.7	85	4.2	0	0	---	0.00	30.236 
02:10	7.7	7.7	7.7	85	4.2	0	0	---	0.00	30.236 
02:15	7.7	7.7	7.7	85	4.2	0	0	---	0.00	30.237 
02:20	7.7	7.7	7.7	85	4.2	0	0	---	0.00	30.237 
02:25	7.7	7.7	7.7	85	4.2	0	0	---	0.00	30.237 
02:30	7.7	7.7	7.7	85	4.2	0	0	---	0.00	30.235 
02:35	7.7	7.7	7.7	85	4.2	0	0	---	0.00	30.235 
02:40	7.9	7.9	7.9	85	4.3	0	0	---	0.00	30.235 
02:45	7.9	7.9	7.9	85	4.3	0	0	---	0.00	30.236 
02:50	8.1	8.1	8.1	85	4.5	0	0	---	0.00	30.236 
02:55	8.6	8.6	8.6	86	5.3	0	0	---	0.00	30.236 
03:00	8.6	8.6	8.6	85	5.0	0	0	---	0.00	30.242 
03:05	8.8	8.8	8.8	85	5.2	0	0	---	0.00	30.242 
03:10	8.6	8.6	8.6	85	5.0	0	0	---	0.00	30.242 
03:15	8.6	8.6	8.6	85	5.0	0	0	---	0.00	30.237 
03:20	8.6	8.6	8.6	85	5.0	0	0	---	0.00	30.237 
03:25	8.4	8.4	8.4	85	4.8	0	0	---	0.00	30.237 
03:30	8.4	8.4	8.4	85	4.8	0	0	---	0.00	30.240 
03:35	8.3	8.3	8.3	85	4.7	0	0	---	0.00	30.240 
03:40	8.1	8.1	8.1	85	4.5	0	0	---	0.00	30.240 
03:45	7.9	7.9	7.9	84	4.1	0	0	---	0.00	30.236 
03:50	7.7	7.7	7.7	84	3.9	0	0	---	0.00	30.236 
03:55	7.6	7.6	7.6	84	3.8	0	0	---	0.00	30.236 
04:00	7.4	7.4	7.4	84	3.6	0	0	---	0.00	30.238 
04:05	7.4	7.4	7.4	84	3.6	0	0	---	0.00	30.238 
04:10	7.2	7.2	7.2	84	3.4	0	0	---	0.00	30.238 
04:15	7.2	7.2	7.2	84	3.4	0	0	---	0.00	30.244 
04:20	7.0	7.0	7.0	84	3.2	0	0	---	0.00	30.244 
04:25	7.0	7.0	7.0	84	3.2	0	0	---	0.00	30.244 
04:30	7.0	7.0	7.0	84	3.2	0	0	---	0.00	30.238 
04:35	6.9	6.9	6.9	84	3.1	0	0	---	0.00	30.238 
04:40	6.9	6.9	6.9	84	3.1	0	0	---	0.00	30.238 
04:45	7.0	7.0	7.0	85	3.5	0	0	---	0.00	30.244 
04:50	7.4	7.4	7.4	85	3.9	0	1	90	0.00	30.244 
04:55	7.7	7.7	7.7	85	4.2	0	0	---	0.00	30.244 
05:00	8.3	8.3	8.3	86	5.0	0	0	---	0.00	30.241 
05:05	8.6	8.6	8.6	86	5.3	0	0	---	0.00	30.241 
05:10	8.6	8.6	8.6	85	5.0	0	0	---	0.00	30.241 
05:15	8.6	8.6	8.6	85	5.0	0	0	---	0.00	30.244 
05:20	8.4	8.4	8.4	85	4.8	0	0	---	0.00	30.244 
05:25	8.6	8.6	8.6	85	5.0	0	1	90	0.00	30.244 
05:30	9.2	9.2	9.2	86	5.9	0	1	90	0.00	30.251 
05:35	9.5	9.5	9.5	86	6.2	0	1	90	0.00	30.251 
05:40	9.7	9.7	9.7	86	6.4	0	1	90	0.00	30.251 
05:45	10.0	10.0	10.0	86	6.7	0	1	90	0.00	30.258 
05:50	10.2	10.2	10.2	86	6.9	0	1	90	0.00	30.258 
05:55	10.4	10.4	10.4	85	6.8	0	1	90	0.00	30.258 
06:00	10.5	10.5	10.5	85	6.9	0	0	---	0.00	30.260 
06:05	10.5	10.5	10.5	85	6.9	0	1	90	0.00	30.260 
06:10	10.5	10.5	10.5	84	6.6	0	1	90	0.00	30.260 
06:15	10.5	10.5	10.5	84	6.6	0	0	---	0.00	30.266 
06:20	10.5	10.5	10.5	84	6.6	0	1	90	0.00	30.266 
06:25	10.5	10.5	10.5	84	6.6	0	0	---	0.00	30.266 
06:30	10.5	10.5	10.5	84	6.6	0	0	---	0.00	30.266 
06:35	10.5	10.5	10.5	84	6.6	0	0	---	0.00	30.266 
06:40	10.5	10.5	10.5	84	6.6	0	1	90	0.00	30.266 
06:45	10.7	10.7	10.7	84	6.8	0	1	90	0.00	30.267 
06:50	10.9	10.9	10.9	84	7.0	0	1	90	0.00	30.267 
06:55	11.2	11.2	11.2	84	7.3	0	1	90	0.00	30.267 
07:00	11.6	11.6	11.6	84	7.7	0	3	248	0.00	30.268 
07:05	11.7	11.7	11.7	84	7.8	1	3	248	0.00	30.268 
07:10	11.9	11.9	11.9	84	8.0	0	1	248	0.00	30.268 
07:15	12.1	12.1	12.1	83	7.9	0	3	248	0.00	30.277 
07:20	12.1	12.1	12.1	83	7.9	0	2	248	0.00	30.277 
07:25	12.3	12.3	12.3	82	7.9	0	2	248	0.00	30.277 
07:30	12.3	12.3	12.3	82	7.9	0	2	248	0.00	30.272 
07:35	12.3	12.3	12.3	82	7.9	0	4	225	0.00	30.272 
07:40	12.3	12.3	12.3	81	7.6	0	2	248	0.00	30.272 
07:45	12.1	12.1	12.1	81	7.4	0	1	248	0.00	30.275 
07:50	12.1	12.1	12.1	81	7.4	0	2	248	0.00	30.275 
07:55	11.9	11.9	11.9	81	7.2	0	3	248	0.00	30.275 
08:00	11.9	11.9	11.9	81	7.2	0	2	248	0.00	30.280 
08:05	12.1	12.1	12.1	81	7.4	0	2	248	0.00	30.280 
08:10	12.1	12.1	12.1	81	7.4	0	1	248	0.00	30.280 
08:15	12.1	12.1	12.1	81	7.4	0	3	248	0.00	30.281 
08:20	12.1	12.1	12.1	81	7.4	1	3	248	0.00	30.281 
08:25	12.3	12.3	12.3	81	7.6	1	3	248	0.00	30.281 
08:30	12.6	12.6	12.6	81	7.9	0	4	225	0.00	30.286 
08:35	12.8	12.8	12.8	81	8.1	0	2	225	0.00	30.286 
08:40	12.9	12.9	12.9	81	8.2	0	2	270	0.00	30.286 
08:45	13.3	13.3	13.3	81	8.6	0	2	270	0.00	30.289 
08:50	13.6	13.6	13.6	81	8.9	0	3	248	0.00	30.289 
08:55	14.1	14.1	14.1	81	9.4	0	2	248	0.00	30.289 
09:00	14.4	14.4	14.4	80	9.4	0	2	248	0.00	30.289 
09:05	14.8	14.8	14.8	79	9.5	0	2	248	0.00	30.289 
09:10	14.9	14.9	14.9	79	9.6	0	2	248	0.00	30.289 
09:15	15.2	15.2	15.2	78	9.6	0	2	248	0.00	30.283 
09:20	15.6	15.6	15.6	77	9.7	1	3	248	0.00	30.283 
09:25	15.9	15.9	15.9	77	10.0	1	3	248	0.00	30.283 
09:30	16.2	16.2	16.2	76	10.0	1	2	248	0.00	30.281 
09:35	16.5	16.5	16.5	75	10.0	2	5	248	0.00	30.281 
09:40	16.7	16.7	16.7	73	9.6	2	5	248	0.00	30.281 
09:45	16.9	16.9	16.9	73	9.8	2	5	248	0.00	30.279 
09:50	16.9	16.9	16.9	72	9.5	3	9	248	0.00	30.279 
09:55	17.2	17.2	17.2	72	9.8	2	6	248	0.00	30.279 
10:00	17.5	17.5	17.5	73	10.3	2	5	248	0.00	30.277 
10:05	17.7	17.7	17.7	72	10.2	2	6	248	0.00	30.277 
10:10	18.0	18.0	18.0	73	10.8	1	3	248	0.00	30.277 
10:15	18.3	18.3	18.3	73	11.1	2	4	248	0.00	30.279 
10:20	18.4	18.4	18.4	73	11.2	2	4	248	0.00	30.279 
10:25	18.8	18.8	18.8	73	11.6	2	7	248	0.00	30.279 
10:30	18.9	18.9	18.9	73	11.7	1	4	270	0.00	30.277 
10:35	19.2	19.2	19.2	73	12.0	1	3	248	0.00	30.277 
10:40	19.5	19.5	19.5	74	12.6	1	3	248	0.00	30.277 
10:45	19.7	19.7	19.7	73	12.5	2	4	248	0.00	30.279 
10:50	19.9	19.9	19.9	73	12.7	1	3	248	0.00	30.279 
10:55	19.9	19.9	19.9	74	13.0	2	4	248	0.00	30.279 
11:00	20.0	20.0	20.0	74	13.1	2	5	248	0.00	30.277 
11:05	20.2	20.2	20.2	74	13.3	2	6	248	0.00	30.277 
11:10	20.2	20.2	20.2	73	13.0	3	7	248	0.00	30.277 
11:15	20.2	20.2	20.2	73	13.0	2	7	270	0.00	30.278 
11:20	20.2	20.2	20.2	73	13.0	2	5	248	0.00	30.278 
11:25	20.3	20.3	20.3	73	13.1	1	4	270	0.00	30.278 
11:30	20.6	20.6	20.6	73	13.3	2	5	270	0.00	30.277 
11:35	20.8	20.8	20.8	72	13.2	2	6	270	0.00	30.277 
11:40	21.0	21.0	21.0	72	13.4	2	7	248	0.00	30.277 
11:45	21.3	21.3	21.3	72	13.7	2	6	248	0.00	30.275 
11:50	21.6	21.6	21.6	71	13.7	2	6	248	0.00	30.275 
11:55	21.8	21.8	21.8	71	13.9	2	5	270	0.00	30.275 
12:00	22.2	22.2	22.2	70	13.9	2	6	248	0.00	30.264 
12:05	22.9	22.9	22.9	68	13.9	3	6	270	0.00	30.264 
12:10	22.9	17.6	22.9	67	13.6	4	9	270	0.00	30.264 
12:15	22.5	22.5	22.5	67	13.2	3	6	270	0.00	30.261 
12:20	22.4	22.4	22.4	67	13.1	3	10	270	0.00	30.261 
12:25	22.4	17.0	22.4	67	13.1	4	11	248	0.00	30.261 
12:30	23.0	23.0	23.0	67	13.7	3	9	270	0.00	30.259 
12:35	23.3	23.3	23.3	66	13.6	3	9	270	0.00	30.259 
12:40	23.6	23.6	23.6	66	13.9	3	6	292	0.00	30.259 
12:45	23.8	18.6	23.8	65	13.8	4	10	270	0.00	30.258 
12:50	24.1	24.1	24.1	64	13.7	3	9	248	0.00	30.258 
12:55	23.8	18.6	23.8	64	13.4	4	9	270	0.00	30.258 
13:00	24.1	24.1	24.1	65	14.1	2	7	270	0.00	30.248 
13:05	24.4	24.4	24.4	64	14.0	3	7	270	0.00	30.248 
13:10	24.4	19.3	24.4	63	13.6	4	10	248	0.00	30.248 
13:15	24.5	24.5	24.5	64	14.1	2	6	248	0.00	30.244 
13:20	24.7	19.6	24.7	62	13.6	4	10	270	0.00	30.244 
13:25	24.7	19.6	24.7	62	13.6	4	10	270	0.00	30.244 
13:30	24.7	24.7	24.7	62	13.6	3	11	270	0.00	30.243 
13:35	24.8	19.8	24.8	62	13.7	4	13	270	0.00	30.243 
13:40	25.3	25.3	25.3	62	14.1	3	7	270	0.00	30.243 
13:45	25.6	25.6	25.6	60	13.7	3	11	270	0.00	30.237 
13:50	25.6	25.6	25.6	61	14.0	3	13	270	0.00	30.237 
13:55	25.7	20.8	25.7	60	13.8	4	9	248	0.00	30.237 
14:00	25.8	25.8	25.8	61	14.2	2	7	248	0.00	30.235 
14:05	26.1	21.3	26.1	60	14.1	4	9	248	0.00	30.235 
14:10	26.3	26.3	26.3	60	14.3	2	5	248	0.00	30.235 
14:15	26.4	21.6	26.4	58	13.7	4	9	248	0.00	30.227 
14:20	26.6	26.6	26.6	58	13.8	2	5	248	0.00	30.227 
14:25	26.6	21.8	26.6	57	13.4	4	10	248	0.00	30.227 
14:30	26.6	21.8	26.6	56	13.0	4	11	248	0.00	30.225 
14:35	26.6	26.6	26.6	56	13.0	3	10	248	0.00	30.225 
14:40	26.7	26.7	26.7	56	13.1	3	9	248	0.00	30.225 
14:45	26.9	26.9	26.9	54	12.5	3	7	270	0.00	30.225 
14:50	26.9	22.2	26.9	54	12.5	4	7	270	0.00	30.225 
14:55	27.0	22.3	27.0	54	12.6	4	10	248	0.00	30.225 
15:00	27.2	27.2	27.2	54	12.8	3	12	248	0.00	30.224 
15:05	27.2	22.5	27.2	53	12.4	4	8	270	0.00	30.224 
15:10	27.2	27.2	27.2	54	12.8	3	10	270	0.00	30.224 
15:15	27.0	22.3	27.0	54	12.6	4	8	270	0.00	30.230 
15:20	26.9	22.2	26.9	54	12.5	4	7	270	0.00	30.230 
15:25	26.9	26.9	26.9	55	12.9	3	10	270	0.00	30.230 
15:30	27.0	22.3	27.0	55	13.0	4	10	270	0.00	30.234 
15:35	27.5	27.5	27.5	56	13.9	2	5	248	0.00	30.234 
15:40	27.5	27.5	27.5	55	13.5	3	7	248	0.00	30.234 
15:45	27.3	27.3	27.3	55	13.3	2	9	248	0.00	30.235 
15:50	27.5	22.9	27.5	55	13.5	4	12	270	0.00	30.235 
15:55	27.2	21.4	27.2	55	13.2	5	11	248	0.00	30.235 
16:00	27.0	22.3	27.0	55	13.0	4	9	248	0.00	30.236 
16:05	27.0	27.0	27.0	56	13.4	3	11	248	0.00	30.236 
16:10	27.2	22.5	27.2	56	13.6	4	7	270	0.00	30.236 
16:15	27.2	27.2	27.2	56	13.6	3	6	270	0.00	30.240 
16:20	27.2	27.2	27.2	56	13.6	3	7	248	0.00	30.240 
16:25	27.3	27.3	27.3	55	13.3	3	10	248	0.00	30.240 
16:30	27.3	27.3	27.3	55	13.3	3	11	248	0.00	30.242 
16:35	27.2	22.5	27.2	55	13.2	4	10	248	0.00	30.242 
16:40	27.0	22.3	27.0	55	13.0	4	10	248	0.00	30.242 
16:45	26.9	26.9	26.9	56	13.3	3	9	270	0.00	30.244 
16:50	26.9	26.9	26.9	57	13.7	3	6	248	0.00	30.244 
16:55	26.7	26.7	26.7	57	13.5	3	7	248	0.00	30.244 
17:00	26.7	26.7	26.7	58	13.9	2	6	248	0.00	30.243 
17:05	26.6	26.6	26.6	58	13.8	2	7	248	0.00	30.243 
17:10	26.6	26.6	26.6	58	13.8	2	7	248	0.00	30.243 
17:15	26.4	26.4	26.4	58	13.7	2	5	248	0.00	30.242 
17:20	26.3	26.3	26.3	59	13.9	2	5	248	0.00	30.242 
17:25	26.1	26.1	26.1	60	14.1	3	7	248	0.00	30.242 
17:30	26.0	26.0	26.0	60	14.0	3	6	248	0.00	30.242 
17:35	25.7	25.7	25.7	60	13.8	2	9	248	0.00	30.242 
17:40	25.6	25.6	25.6	61	14.0	2	6	248	0.00	30.242 
17:45	25.4	25.4	25.4	61	13.9	3	6	248	0.00	30.241 
17:50	25.4	25.4	25.4	61	13.9	1	4	248	0.00	30.241 
17:55	25.3	25.3	25.3	61	13.8	2	6	248	0.00	30.241 
18:00	25.1	25.1	25.1	62	13.9	3	7	248	0.00	30.246 
18:05	25.1	25.1	25.1	62	13.9	3	7	248	0.00	30.246 
18:10	25.0	25.0	25.0	62	13.8	2	6	248	0.00	30.246 
18:15	24.8	24.8	24.8	62	13.7	2	5	248	0.00	30.256 
18:20	24.7	24.7	24.7	62	13.6	1	3	248	0.00	30.256 
18:25	24.7	24.7	24.7	62	13.6	2	4	248	0.00	30.256 
18:30	24.5	24.5	24.5	63	13.7	2	4	248	0.00	30.265 
18:35	24.5	24.5	24.5	63	13.7	1	4	248	0.00	30.265 
18:40	24.4	24.4	24.4	63	13.6	2	5	248	0.00	30.265 
18:45	24.2	24.2	24.2	64	13.8	1	5	248	0.00	30.272 
18:50	24.1	24.1	24.1	64	13.7	1	5	248	0.00	30.272 
18:55	24.1	24.1	24.1	64	13.7	1	4	248	0.00	30.272 
19:00	23.9	23.9	23.9	65	13.9	0	4	248	0.00	30.276 
19:05	23.8	23.8	23.8	65	13.8	1	4	248	0.00	30.276 
19:10	23.6	23.6	23.6	65	13.6	1	3	248	0.00	30.276 
19:15	23.6	23.6	23.6	66	13.9	1	5	248	0.00	30.286 
19:20	23.5	23.5	23.5	66	13.8	1	4	248	0.00	30.286 
19:25	23.3	23.3	23.3	66	13.6	1	3	248	0.00	30.286 
19:30	23.3	23.3	23.3	67	14.0	1	4	248	0.00	30.291 
19:35	23.3	23.3	23.3	67	14.0	2	5	270	0.00	30.291 
19:40	23.2	23.2	23.2	67	13.9	1	4	248	0.00	30.291 
19:45	23.2	23.2	23.2	67	13.9	1	4	248	0.00	30.302 
19:50	23.2	23.2	23.2	67	13.9	1	4	248	0.00	30.302 
19:55	23.2	23.2	23.2	67	13.9	2	5	248	0.00	30.302 
20:00	23.0	23.0	23.0	67	13.7	1	5	248	0.00	30.306 
20:05	23.0	23.0	23.0	67	13.7	1	4	248	0.00	30.306 
20:10	22.9	22.9	22.9	68	13.9	1	5	248	0.00	30.306 
20:15	22.9	22.9	22.9	68	13.9	2	5	248	0.00	30.304 
20:20	22.9	22.9	22.9	68	13.9	1	5	248	0.00	30.304 
20:25	22.7	22.7	22.7	68	13.8	1	5	270	0.00	30.304 
20:30	22.7	22.7	22.7	68	13.8	1	4	248	0.00	30.303 
20:35	22.5	22.5	22.5	68	13.6	1	4	225	0.00	30.303 
20:40	22.5	22.5	22.5	68	13.6	1	3	225	0.00	30.303 
20:45	22.4	22.4	22.4	69	13.8	1	4	248	0.00	30.304 
20:50	22.4	22.4	22.4	69	13.8	1	3	248	0.00	30.304 
20:55	22.2	22.2	22.2	69	13.6	1	3	248	0.00	30.304 
21:00	22.2	22.2	22.2	69	13.6	1	3	248	0.00	30.305 
21:05	22.2	22.2	22.2	69	13.6	1	2	248	0.00	30.305 
21:10	22.1	22.1	22.1	69	13.5	0	2	248	0.00	30.305 
21:15	22.1	22.1	22.1	69	13.5	1	2	248	0.00	30.303 
21:20	21.9	21.9	21.9	69	13.3	0	2	248	0.00	30.303 
21:25	21.8	21.8	21.8	70	13.5	0	2	248	0.00	30.303 
21:30	21.6	21.6	21.6	70	13.4	0	2	248	0.00	30.308 
21:35	21.6	21.6	21.6	70	13.4	0	2	248	0.00	30.308 
21:40	21.4	21.4	21.4	70	13.2	1	3	248	0.00	30.308 
21:45	21.4	21.4	21.4	70	13.2	1	2	270	0.00	30.316 
21:50	21.3	21.3	21.3	70	13.1	0	2	270	0.00	30.316 
21:55	21.3	21.3	21.3	71	13.4	1	2	270	0.00	30.316 
22:00	21.1	21.1	21.1	71	13.2	0	2	270	0.00	30.321 
22:05	21.1	21.1	21.1	71	13.2	1	2	270	0.00	30.321 
22:10	21.0	21.0	21.0	71	13.1	0	2	270	0.00	30.321 
22:15	21.0	21.0	21.0	72	13.4	0	2	270	0.00	30.322 
22:20	20.8	20.8	20.8	72	13.2	0	2	270	0.00	30.322 
22:25	20.8	20.8	20.8	72	13.2	0	1	270	0.00	30.322 
22:30	20.6	20.6	20.6	72	13.0	0	1	270	0.00	30.323 
22:35	20.5	20.5	20.5	72	12.9	0	2	270	0.00	30.323 
22:40	20.3	20.3	20.3	72	12.7	0	1	270	0.00	30.323 
22:45	20.2	20.2	20.2	73	13.0	0	1	270	0.00	30.327 
22:50	20.0	20.0	20.0	73	12.8	0	0	---	0.00	30.327 
22:55	19.9	19.9	19.9	73	12.7	0	1	270	0.00	30.327 
23:00	19.7	19.7	19.7	73	12.5	0	0	---	0.00	30.328 
23:05	19.5	19.5	19.5	73	12.3	0	0	---	0.00	30.328 
23:10	19.2	19.2	19.2	73	12.0	0	0	---	0.00	30.328 
23:15	18.9	18.9	18.9	74	12.0	0	0	---	0.00	30.329 
23:20	18.6	18.6	18.6	74	11.7	0	0	---	0.00	30.329 
23:25	18.4	18.4	18.4	75	11.8	0	1	270	0.00	30.329 
23:30	18.3	18.3	18.3	76	12.0	0	1	270	0.00	30.332 
23:35	18.1	18.1	18.1	76	11.8	0	0	---	0.00	30.332 
23:40	18.1	18.1	18.1	77	12.1	0	0	---	0.00	30.332 
23:45	18.0	18.0	18.0	77	12.0	0	0	---	0.00	30.335 
23:50	17.8	17.8	17.8	77	11.8	0	0	---	0.00	30.335 
23:55	17.5	17.5	17.5	77	11.5	0	0	---	0.00	30.335 

CoCoRaHS
IN-AL-39
A2 Web Hosting
Creative Commons License
GoDaddy
search engine by freefind advanced

loaded 2018-11-12 15:12:36 • last modified 2010-11-18 10:43:29
Privacy PolicyDisclaimer
• wx.awcolley.com is powered by PmWiki v.2002016 •
• all content (unless otherwise noted) © 2018 A W Colley